createdAt,value
2018-09-08T00:02:00.920Z,99.90
2018-09-08T00:04:30.300Z,99.90
2018-09-08T00:07:04.725Z,99.90
2018-09-08T00:09:34.092Z,99.90
2018-09-08T00:12:03.580Z,99.90
2018-09-08T00:14:32.864Z,99.90
2018-09-08T00:17:07.353Z,99.90
2018-09-08T00:19:42.540Z,99.90
2018-09-08T00:22:17.012Z,99.90
2018-09-08T00:24:51.380Z,99.90
2018-09-08T00:27:22.931Z,99.90
2018-09-08T00:29:52.497Z,99.90
2018-09-08T00:32:22.919Z,99.90
2018-09-08T00:34:52.288Z,99.90
2018-09-08T00:37:21.644Z,99.90
2018-09-08T00:39:50.988Z,99.90
2018-09-08T00:42:20.610Z,99.90
2018-09-08T00:44:49.952Z,99.90
2018-09-08T00:47:19.423Z,99.90
2018-09-08T00:49:48.866Z,99.90
2018-09-08T00:52:18.202Z,99.90
2018-09-08T00:54:47.566Z,99.90
2018-09-08T00:57:16.917Z,99.90
2018-09-08T00:59:46.247Z,99.90
2018-09-08T01:02:15.620Z,99.90
2018-09-08T01:04:45.090Z,99.90
2018-09-08T01:07:19.525Z,99.90
2018-09-08T01:09:48.874Z,99.90
2018-09-08T01:12:18.215Z,99.90
2018-09-08T01:14:47.615Z,99.90
2018-09-08T01:17:16.967Z,99.90
2018-09-08T01:19:46.316Z,99.90
2018-09-08T01:22:16.040Z,99.90
2018-09-08T01:24:45.417Z,99.90
2018-09-08T01:27:14.784Z,99.90
2018-09-08T01:29:44.120Z,99.90
2018-09-08T01:32:13.606Z,99.90
2018-09-08T01:34:42.952Z,99.90
2018-09-08T01:37:12.311Z,99.90
2018-09-08T01:39:41.677Z,99.90
2018-09-08T01:42:11.057Z,99.90
2018-09-08T01:44:40.409Z,99.90
2018-09-08T01:47:09.893Z,99.90
2018-09-08T01:49:39.288Z,99.90
2018-09-08T01:52:08.844Z,99.90
2018-09-08T01:54:38.276Z,99.90
2018-09-08T01:57:07.709Z,99.90
2018-09-08T01:59:37.053Z,99.90
2018-09-08T02:02:06.490Z,99.90
2018-09-08T02:04:35.832Z,99.90
2018-09-08T02:07:05.189Z,99.90
2018-09-08T02:09:34.564Z,99.90
2018-09-08T02:12:03.964Z,99.90
2018-09-08T02:14:33.291Z,99.90
2018-09-08T02:17:02.695Z,99.90
2018-09-08T02:19:32.073Z,99.90
2018-09-08T02:22:01.559Z,99.90
2018-09-08T02:24:31.159Z,99.90
2018-09-08T02:27:00.616Z,99.90
2018-09-08T02:29:29.952Z,99.90
2018-09-08T02:31:59.369Z,99.90
2018-09-08T02:34:28.777Z,99.90
2018-09-08T02:36:58.112Z,99.90
2018-09-08T02:39:27.478Z,99.90
2018-09-08T02:41:56.899Z,99.90
2018-09-08T02:44:26.312Z,99.90
2018-09-08T02:46:55.724Z,99.90
2018-09-08T02:49:30.438Z,99.90
2018-09-08T02:51:58.164Z,99.90
2018-09-08T02:54:25.912Z,99.90
2018-09-08T02:56:53.757Z,99.90
2018-09-08T02:59:21.544Z,99.90
2018-09-08T03:01:49.392Z,99.90
2018-09-08T03:04:17.242Z,99.90
2018-09-08T03:06:45.040Z,99.90
2018-09-08T03:09:12.769Z,99.90
2018-09-08T03:11:40.524Z,99.90
2018-09-08T03:14:08.280Z,99.90
2018-09-08T03:16:36.221Z,99.90
2018-09-08T03:19:04.065Z,99.90
2018-09-08T03:21:31.928Z,99.90
2018-09-08T03:23:59.673Z,99.90
2018-09-08T03:26:27.413Z,99.90
2018-09-08T03:28:55.249Z,99.90
2018-09-08T03:31:23.225Z,99.90
2018-09-08T03:33:50.965Z,99.90
2018-09-08T03:36:18.726Z,99.90
2018-09-08T03:38:46.515Z,99.90
2018-09-08T03:41:14.343Z,99.90
2018-09-08T03:43:42.102Z,99.90
2018-09-08T03:46:09.809Z,99.90
2018-09-08T03:48:37.547Z,99.90
2018-09-08T03:54:36.357Z,99.90
2018-09-08T03:57:04.137Z,99.90
2018-09-08T03:59:32.248Z,99.90
2018-09-08T04:02:00.225Z,99.90
2018-09-08T04:04:29.736Z,99.90
2018-09-08T04:06:59.253Z,99.90
2018-09-08T04:09:28.765Z,99.90
2018-09-08T04:11:58.320Z,99.90
2018-09-08T04:14:27.752Z,99.90
2018-09-08T04:16:57.258Z,99.90
2018-09-08T04:19:26.742Z,99.90
2018-09-08T04:21:56.254Z,99.90
2018-09-08T04:24:25.738Z,99.90
2018-09-08T04:26:55.252Z,99.90
2018-09-08T04:29:24.731Z,99.90
2018-09-08T04:31:54.396Z,99.90
2018-09-08T04:34:24.135Z,99.90
2018-09-08T04:36:53.622Z,99.90
2018-09-08T04:39:23.203Z,99.90
2018-09-08T04:41:52.824Z,99.90
2018-09-08T04:44:22.416Z,99.90
2018-09-08T04:46:51.956Z,99.90
2018-09-08T04:49:21.565Z,99.90
2018-09-08T04:51:51.079Z,99.90
2018-09-08T04:54:20.493Z,99.90
2018-09-08T04:56:50.044Z,99.90
2018-09-08T04:59:19.524Z,99.90
2018-09-08T05:01:49.084Z,99.90
2018-09-08T05:04:18.579Z,99.90
2018-09-08T05:06:48.210Z,99.90
2018-09-08T05:09:17.704Z,99.90
2018-09-08T05:11:47.161Z,99.90
2018-09-08T05:14:16.741Z,99.90
2018-09-08T05:16:46.329Z,99.90
2018-09-08T05:19:15.795Z,99.90
2018-09-08T05:21:45.258Z,99.90
2018-09-08T05:24:14.752Z,99.90
2018-09-08T05:26:59.446Z,99.90
2018-09-08T05:29:28.885Z,99.90
2018-09-08T05:31:58.333Z,99.90
2018-09-08T05:34:27.792Z,99.90
2018-09-08T05:36:57.449Z,99.90
2018-09-08T05:39:27.029Z,99.90
2018-09-08T05:41:56.654Z,99.90
2018-09-08T05:44:26.173Z,99.90
2018-09-08T05:46:55.733Z,99.90
2018-09-08T05:49:25.226Z,99.90
2018-09-08T05:51:54.762Z,99.90
2018-09-08T05:54:24.199Z,99.90
2018-09-08T05:56:53.672Z,99.90
2018-09-08T05:59:23.121Z,99.90
2018-09-08T06:01:52.708Z,99.90
2018-09-08T06:04:22.960Z,99.90
2018-09-08T06:06:56.610Z,99.90
2018-09-08T06:09:26.095Z,99.90
2018-09-08T06:11:55.506Z,99.90
2018-09-08T06:14:24.995Z,99.90
2018-09-08T06:16:54.808Z,99.90
2018-09-08T06:19:24.386Z,99.90
2018-09-08T06:21:53.880Z,99.90
2018-09-08T06:24:23.444Z,99.90
2018-09-08T06:26:52.987Z,99.90
2018-09-08T06:29:22.499Z,99.90
2018-09-08T06:31:52.069Z,99.90
2018-09-08T06:34:21.566Z,99.90
2018-09-08T06:36:51.039Z,99.90
2018-09-08T06:39:20.748Z,99.90
2018-09-08T06:41:50.400Z,99.90
2018-09-08T06:44:19.887Z,99.90
2018-09-08T06:46:49.352Z,99.90
2018-09-08T06:49:18.855Z,99.90
2018-09-08T06:51:49.404Z,99.90
2018-09-08T06:54:18.853Z,99.90
2018-09-08T06:56:48.337Z,99.90
2018-09-08T06:59:17.844Z,99.90
2018-09-08T07:01:47.420Z,99.90
2018-09-08T07:04:16.905Z,99.90
2018-09-08T07:06:46.417Z,99.90
2018-09-08T07:09:15.972Z,99.90
2018-09-08T07:11:46.516Z,99.90
2018-09-08T07:14:16.005Z,99.90
2018-09-08T07:16:45.509Z,99.90
2018-09-08T07:19:15.026Z,99.90
2018-09-08T07:21:44.674Z,99.90
2018-09-08T07:24:14.174Z,99.90
2018-09-08T07:26:43.680Z,99.90
2018-09-08T07:29:13.180Z,99.90
2018-09-08T07:31:42.713Z,99.90
2018-09-08T07:34:12.283Z,99.90
2018-09-08T07:36:41.849Z,99.90
2018-09-08T07:39:12.033Z,99.90
2018-09-08T07:41:41.637Z,99.90
2018-09-08T07:44:11.498Z,99.90
2018-09-08T07:46:41.514Z,99.90
2018-09-08T07:49:11.024Z,99.90
2018-09-08T07:51:40.730Z,99.90
2018-09-08T07:54:10.289Z,99.90
2018-09-08T07:56:39.776Z,99.90
2018-09-08T07:59:09.381Z,99.90
2018-09-08T08:01:38.981Z,99.90
2018-09-08T08:04:09.774Z,99.90
2018-09-08T08:06:39.330Z,99.90
2018-09-08T08:09:09.780Z,99.90
2018-09-08T08:11:39.305Z,99.90
2018-09-08T08:14:08.858Z,99.90
2018-09-08T08:16:38.752Z,99.90
2018-09-08T08:19:08.268Z,99.90
2018-09-08T08:21:37.876Z,99.90
2018-09-08T08:24:07.417Z,99.90
2018-09-08T08:26:37.059Z,99.90
2018-09-08T08:29:06.531Z,99.90
2018-09-08T08:31:36.176Z,99.90
2018-09-08T08:34:05.746Z,99.90
2018-09-08T08:36:35.221Z,99.90
2018-09-08T08:39:06.713Z,99.90
2018-09-08T08:41:38.809Z,99.90
2018-09-08T08:44:08.499Z,99.90
2018-09-08T08:46:38.032Z,99.90
2018-09-08T08:49:07.540Z,99.90
2018-09-08T08:51:48.152Z,99.90
2018-09-08T08:54:22.782Z,99.90
2018-09-08T08:56:52.342Z,99.90
2018-09-08T08:59:21.852Z,99.90
2018-09-08T09:01:51.447Z,99.90
2018-09-08T09:04:20.906Z,99.90
2018-09-08T09:06:50.527Z,99.90
2018-09-08T09:09:20.054Z,99.90
2018-09-08T09:11:51.021Z,99.90
2018-09-08T09:14:20.240Z,99.90
2018-09-08T09:16:49.721Z,99.90
2018-09-08T09:19:47.376Z,99.90
2018-09-08T09:22:28.601Z,99.90
2018-09-08T09:25:05.208Z,99.90
2018-09-08T09:27:39.004Z,99.90
2018-09-08T09:30:09.387Z,99.90
2018-09-08T09:32:38.831Z,99.90
2018-09-08T09:35:10.060Z,99.90
2018-09-08T09:37:39.564Z,99.90
2018-09-08T09:40:09.976Z,99.90
2018-09-08T09:42:39.499Z,99.90
2018-09-08T09:45:09.824Z,99.90
2018-09-08T09:47:39.333Z,99.90
2018-09-08T09:50:10.699Z,99.90
2018-09-08T09:52:40.679Z,99.90
2018-09-08T09:55:10.252Z,99.90
2018-09-08T09:57:39.753Z,99.90
2018-09-08T10:00:11.389Z,99.90
2018-09-08T10:02:45.894Z,99.80
2018-09-08T10:05:18.221Z,99.90
2018-09-08T10:07:48.013Z,99.90
2018-09-08T10:10:25.309Z,99.90
2018-09-08T10:12:54.770Z,99.90
2018-09-08T10:15:24.256Z,99.90
2018-09-08T10:17:53.825Z,99.90
2018-09-08T10:20:24.543Z,99.70
2018-09-08T10:22:54.068Z,99.90
2018-09-08T10:25:23.508Z,98.10
2018-09-08T10:27:52.968Z,97.70
2018-09-08T10:30:22.634Z,98.00
2018-09-08T10:32:52.076Z,98.40
2018-09-08T10:35:21.549Z,99.60
2018-09-08T10:37:51.101Z,97.50
2018-09-08T10:40:20.773Z,98.40
2018-09-08T10:42:50.288Z,98.30
2018-09-08T10:45:19.769Z,97.40
2018-09-08T10:47:49.259Z,98.40
2018-09-08T10:50:18.763Z,97.50
2018-09-08T10:52:49.752Z,96.90
2018-09-08T10:55:19.269Z,95.50
2018-09-08T10:57:48.743Z,96.40
2018-09-08T11:00:18.225Z,95.80
2018-09-08T11:02:48.054Z,96.10
2018-09-08T11:05:17.383Z,95.90
2018-09-08T11:07:46.857Z,94.80
2018-09-08T11:10:16.444Z,94.30
2018-09-08T11:12:45.978Z,96.20
2018-09-08T11:15:15.505Z,94.30
2018-09-08T11:17:45.062Z,93.70
2018-09-08T11:20:14.729Z,94.20
2018-09-08T11:22:44.167Z,92.80
2018-09-08T11:25:13.710Z,93.40
2018-09-08T11:27:43.346Z,92.90
2018-09-08T11:30:13.018Z,92.80
2018-09-08T11:32:42.539Z,94.50
2018-09-08T11:35:11.977Z,94.00
2018-09-08T11:37:41.408Z,91.80
2018-09-08T11:40:10.976Z,91.20
2018-09-08T11:42:40.546Z,93.80
2018-09-08T11:45:10.114Z,91.50
2018-09-08T11:47:39.557Z,93.90
2018-09-08T11:50:09.143Z,81.20
2018-09-08T11:52:38.524Z,88.50
2018-09-08T11:55:07.925Z,79.70
2018-09-08T11:57:37.682Z,81.10
2018-09-08T12:00:07.589Z,85.00
2018-09-08T12:02:37.152Z,77.00
2018-09-08T12:05:06.661Z,80.50
2018-09-08T12:07:36.169Z,76.50
2018-09-08T12:10:05.786Z,71.80
2018-09-08T12:12:35.354Z,80.90
2018-09-08T12:15:05.317Z,75.60
2018-09-08T12:17:34.889Z,78.90
2018-09-08T12:20:04.508Z,72.20
2018-09-08T12:22:34.008Z,75.10
2018-09-08T12:25:03.527Z,74.80
2018-09-08T12:27:32.977Z,70.40
2018-09-08T12:30:02.748Z,71.10
2018-09-08T12:32:32.237Z,69.70
2018-09-08T12:35:01.815Z,65.80
2018-09-08T12:37:31.302Z,68.30
2018-09-08T12:40:01.810Z,67.30
2018-09-08T12:42:31.377Z,69.50
2018-09-08T12:45:00.916Z,69.60
2018-09-08T12:47:30.426Z,67.50
2018-09-08T12:49:59.901Z,64.80
2018-09-08T12:52:30.192Z,69.20
2018-09-08T12:55:00.440Z,70.70
2018-09-08T12:57:30.490Z,67.10
2018-09-08T13:00:00.050Z,67.40
2018-09-08T13:02:29.769Z,66.30
2018-09-08T13:04:59.236Z,64.60
2018-09-08T13:07:28.740Z,67.70
2018-09-08T13:09:58.274Z,65.10
2018-09-08T13:12:27.774Z,63.40
2018-09-08T13:14:57.251Z,69.20
2018-09-08T13:17:26.695Z,70.00
2018-09-08T13:19:56.322Z,62.20
2018-09-08T13:22:25.801Z,66.00
2018-09-08T13:24:55.404Z,65.10
2018-09-08T13:27:24.904Z,65.40
2018-09-08T13:29:54.350Z,59.00
2018-09-08T13:32:23.823Z,63.90
2018-09-08T13:34:53.525Z,67.30
2018-09-08T13:37:23.037Z,62.90
2018-09-08T13:39:52.638Z,64.80
2018-09-08T13:42:22.126Z,62.10
2018-09-08T13:44:51.529Z,60.30
2018-09-08T13:47:21.087Z,57.60
2018-09-08T13:49:50.616Z,59.10
2018-09-08T13:52:20.239Z,57.80
2018-09-08T13:54:49.772Z,57.70
2018-09-08T13:57:19.324Z,58.80
2018-09-08T13:59:48.785Z,60.10
2018-09-08T14:02:18.492Z,59.80
2018-09-08T14:04:48.011Z,57.10
2018-09-08T14:07:18.235Z,57.70
2018-09-08T14:09:48.108Z,59.50
2018-09-08T14:12:17.587Z,57.20
2018-09-08T14:14:47.037Z,54.60
2018-09-08T14:17:16.448Z,53.80
2018-09-08T14:19:45.980Z,54.90
2018-09-08T14:22:15.820Z,54.40
2018-09-08T14:24:45.277Z,55.10
2018-09-08T14:27:14.725Z,54.20
2018-09-08T14:29:44.189Z,57.80
2018-09-08T14:32:13.894Z,58.10
2018-09-08T14:34:43.581Z,57.20
2018-09-08T14:37:13.225Z,54.90
2018-09-08T14:39:43.194Z,55.40
2018-09-08T14:42:12.729Z,56.90
2018-09-08T14:44:42.209Z,55.40
2018-09-08T14:47:11.737Z,55.80
2018-09-08T14:49:41.246Z,55.40
2018-09-08T14:52:10.862Z,54.30
2018-09-08T14:54:40.353Z,53.30
2018-09-08T14:57:09.794Z,55.70
2018-09-08T14:59:39.293Z,56.90
2018-09-08T15:02:08.863Z,57.10
2018-09-08T15:04:38.324Z,56.80
2018-09-08T15:07:08.115Z,57.80
2018-09-08T15:09:37.813Z,60.30
2018-09-08T15:12:07.602Z,65.50
2018-09-08T15:14:37.136Z,72.00
2018-09-08T15:17:07.014Z,66.00
2018-09-08T15:19:36.486Z,59.90
2018-09-08T15:22:06.050Z,59.70
2018-09-08T15:24:35.542Z,57.90
2018-09-08T15:27:05.564Z,60.80
2018-09-08T15:29:35.403Z,63.90
2018-09-08T15:32:05.494Z,70.70
2018-09-08T15:34:36.596Z,73.60
2018-09-08T15:37:06.115Z,75.90
2018-09-08T15:39:38.193Z,74.80
2018-09-08T15:42:08.910Z,78.70
2018-09-08T15:44:38.461Z,86.30
2018-09-08T15:47:08.022Z,88.00
2018-09-08T15:49:37.734Z,86.30
2018-09-08T15:52:07.439Z,90.80
2018-09-08T15:54:37.192Z,86.00
2018-09-08T15:57:06.590Z,91.10
2018-09-08T15:59:36.018Z,90.50
2018-09-08T16:02:05.586Z,91.00
2018-09-08T16:04:35.064Z,91.40
2018-09-08T16:07:04.528Z,91.90
2018-09-08T16:09:34.217Z,92.70
2018-09-08T16:12:03.870Z,92.80
2018-09-08T16:14:33.589Z,94.00
2018-09-08T16:17:03.065Z,95.30
2018-09-08T16:19:36.423Z,93.30
2018-09-08T16:22:05.873Z,94.00
2018-09-08T16:24:35.342Z,93.80
2018-09-08T16:27:04.816Z,92.90
2018-09-08T16:29:34.307Z,92.70
2018-09-08T16:32:03.827Z,93.40
2018-09-08T16:34:33.267Z,93.10
2018-09-08T16:37:02.714Z,93.30
2018-09-08T16:39:32.153Z,94.00
2018-09-08T16:42:01.585Z,94.60
2018-09-08T16:44:31.228Z,95.10
2018-09-08T16:47:00.742Z,95.40
2018-09-08T16:49:30.288Z,95.20
2018-09-08T16:51:59.943Z,95.80
2018-09-08T16:54:29.473Z,96.10
2018-09-08T16:56:58.905Z,95.80
2018-09-08T16:59:28.339Z,95.40
2018-09-08T17:01:57.836Z,96.30
2018-09-08T17:04:27.285Z,96.50
2018-09-08T17:06:56.859Z,96.20
2018-09-08T17:09:26.315Z,96.00
2018-09-08T17:11:55.844Z,96.60
2018-09-08T17:14:25.262Z,96.90
2018-09-08T17:16:54.736Z,97.40
2018-09-08T17:19:24.186Z,97.60
2018-09-08T17:21:53.742Z,98.20
2018-09-08T17:24:23.196Z,98.40
2018-09-08T17:26:52.663Z,98.80
2018-09-08T17:29:22.121Z,98.60
2018-09-08T17:31:51.736Z,98.90
2018-09-08T17:34:21.225Z,99.70
2018-09-08T17:36:51.166Z,99.90
2018-09-08T17:39:20.668Z,99.90
2018-09-08T17:41:50.117Z,99.90
2018-09-08T17:44:19.625Z,99.90
2018-09-08T17:46:49.096Z,99.90
2018-09-08T17:49:18.643Z,99.90
2018-09-08T17:51:48.634Z,99.90
2018-09-08T17:54:18.136Z,99.90
2018-09-08T17:56:47.657Z,99.90
2018-09-08T17:59:17.201Z,99.90
2018-09-08T18:01:47.887Z,99.90
2018-09-08T18:04:17.421Z,99.90
2018-09-08T18:06:46.938Z,99.90
2018-09-08T18:09:16.333Z,99.90
2018-09-08T18:11:45.852Z,99.90
2018-09-08T18:14:15.321Z,99.90
2018-09-08T18:16:44.808Z,99.90
2018-09-08T18:19:14.329Z,99.90
2018-09-08T18:21:43.967Z,99.90
2018-09-08T18:24:13.840Z,99.90
2018-09-08T18:26:43.268Z,99.90
2018-09-08T18:29:12.742Z,99.90
2018-09-08T18:31:42.236Z,99.90
2018-09-08T18:34:11.678Z,99.90
2018-09-08T18:36:41.140Z,99.90
2018-09-08T18:39:10.703Z,99.90
2018-09-08T18:41:40.195Z,99.90
2018-09-08T18:44:09.628Z,99.90
2018-09-08T18:46:39.073Z,99.90
2018-09-08T18:49:08.519Z,99.90
2018-09-08T18:51:38.167Z,99.90
2018-09-08T18:54:07.969Z,99.90
2018-09-08T18:56:37.605Z,99.90
2018-09-08T18:59:07.164Z,99.90
2018-09-08T19:01:36.751Z,99.90
2018-09-08T19:04:06.382Z,99.90
2018-09-08T19:06:35.893Z,99.90
2018-09-08T19:09:06.580Z,99.90
2018-09-08T19:11:36.282Z,99.90
2018-09-08T19:14:05.909Z,99.90
2018-09-08T19:16:35.409Z,99.90
2018-09-08T19:19:04.812Z,99.90
2018-09-08T19:21:34.374Z,99.90
2018-09-08T19:24:08.838Z,99.90
2018-09-08T19:26:38.503Z,99.90
2018-09-08T19:29:13.006Z,99.90
2018-09-08T19:31:42.615Z,99.90
2018-09-08T19:34:12.140Z,99.90
2018-09-08T19:36:41.610Z,99.90
2018-09-08T19:39:12.153Z,99.90
2018-09-08T19:41:41.697Z,99.90
2018-09-08T19:44:11.219Z,99.90
2018-09-08T19:46:45.869Z,99.90
2018-09-08T19:49:15.348Z,99.90
2018-09-08T19:51:45.015Z,99.90
2018-09-08T19:54:14.468Z,99.90
2018-09-08T19:56:50.193Z,99.90
2018-09-08T19:59:19.700Z,99.90
2018-09-08T20:01:49.319Z,99.90
2018-09-08T20:04:18.817Z,99.90
2018-09-08T20:06:48.276Z,99.90
2018-09-08T20:09:17.787Z,99.90
2018-09-08T20:11:47.239Z,99.90
2018-09-08T20:14:16.697Z,99.90
2018-09-08T20:16:46.185Z,99.90
2018-09-08T20:19:15.654Z,99.90
2018-09-08T20:21:45.240Z,99.90
2018-09-08T20:24:14.689Z,99.90
2018-09-08T20:26:44.321Z,99.90
2018-09-08T20:29:13.776Z,99.90
2018-09-08T20:31:44.205Z,99.90
2018-09-08T20:34:15.438Z,99.90
2018-09-08T20:36:46.159Z,99.90
2018-09-08T20:39:19.719Z,99.90
2018-09-08T20:41:50.037Z,99.90
2018-09-08T20:44:20.196Z,99.90
2018-09-08T20:46:52.129Z,99.90
2018-09-08T20:49:23.239Z,99.90
2018-09-08T20:51:54.044Z,99.90
2018-09-08T20:54:24.376Z,99.90
2018-09-08T20:56:55.245Z,99.90
2018-09-08T20:59:27.915Z,99.90
2018-09-08T21:02:03.058Z,99.90
2018-09-08T21:04:38.523Z,99.90
2018-09-08T21:07:09.141Z,99.90
2018-09-08T21:09:39.158Z,99.90
2018-09-08T21:12:08.592Z,99.90
2018-09-08T21:14:38.889Z,99.90
2018-09-08T21:17:08.508Z,99.90
2018-09-08T21:19:38.056Z,99.90
2018-09-08T21:22:07.455Z,99.90
2018-09-08T21:24:36.804Z,99.90
2018-09-08T21:27:06.240Z,99.90
2018-09-08T21:29:35.865Z,99.90
2018-09-08T21:32:05.290Z,99.90
2018-09-08T21:34:34.636Z,99.90
2018-09-08T21:37:03.972Z,99.90
2018-09-08T21:39:33.329Z,99.90
2018-09-08T21:42:02.805Z,99.90
2018-09-08T21:44:32.124Z,99.90
2018-09-08T21:47:05.911Z,99.90
2018-09-08T21:49:30.901Z,99.90
2018-09-08T21:52:00.286Z,99.90
2018-09-08T21:54:29.616Z,99.90
2018-09-08T21:56:58.989Z,99.90
2018-09-08T21:59:28.422Z,99.90
2018-09-08T22:01:58.046Z,99.90
2018-09-08T22:04:27.432Z,99.90
2018-09-08T22:06:56.805Z,99.90
2018-09-08T22:09:26.172Z,99.90
2018-09-08T22:11:55.588Z,99.90
2018-09-08T22:14:24.988Z,99.90
2018-09-08T22:16:54.393Z,99.90
2018-09-08T22:19:23.818Z,99.90
2018-09-08T22:21:53.235Z,99.90
2018-09-08T22:24:22.567Z,99.90
2018-09-08T22:26:51.904Z,99.90
2018-09-08T22:29:21.252Z,99.90
2018-09-08T22:31:50.639Z,99.90
2018-09-08T22:34:20.138Z,99.90
2018-09-08T22:36:49.497Z,99.90
2018-09-08T22:39:18.853Z,99.90
2018-09-08T22:41:48.218Z,99.90
2018-09-08T22:44:17.556Z,99.90
2018-09-08T22:46:46.941Z,99.90
2018-09-08T22:49:16.288Z,99.90
2018-09-08T22:51:45.626Z,99.90
2018-09-08T22:54:14.948Z,99.90
2018-09-08T22:56:44.449Z,99.90
2018-09-08T22:59:13.769Z,99.90
2018-09-08T23:01:43.200Z,99.90
2018-09-08T23:04:12.575Z,99.90
2018-09-08T23:06:41.928Z,99.90
2018-09-08T23:09:11.298Z,99.90
2018-09-08T23:11:40.768Z,99.90
2018-09-08T23:14:10.112Z,99.90
2018-09-08T23:16:39.444Z,99.90
2018-09-08T23:19:08.865Z,99.90
2018-09-08T23:21:38.325Z,99.90
2018-09-08T23:24:07.675Z,99.90
2018-09-08T23:26:37.026Z,99.90
2018-09-08T23:29:07.280Z,99.90
2018-09-08T23:31:36.601Z,99.90
2018-09-08T23:34:06.017Z,99.90
2018-09-08T23:36:35.374Z,99.90
2018-09-08T23:39:06.141Z,99.90
2018-09-08T23:41:35.493Z,99.90
2018-09-08T23:44:04.873Z,99.90
2018-09-08T23:46:34.252Z,99.90
2018-09-08T23:49:03.632Z,99.90
2018-09-08T23:51:33.080Z,99.90
2018-09-08T23:54:02.437Z,99.90
2018-09-08T23:56:31.773Z,99.90
2018-09-08T23:59:01.118Z,99.90
